Disclaimer

    

CYCD

METAR CYCD 150200Z 13004KT 050V140 25SM FEW220 25/13 A3013 RMK CI1 SLP206 DENSITY ALT 1100FT=

METAR CYCD 150100Z 00000KT 25SM FEW220 26/13 A3015 RMK CI1 SLP210 DENSITY ALT 1200FT=

METAR CYCD 150000Z 14006KT 25SM FEW052 FEW220 26/12 A3016 RMK CF1CI1 CF TR SLP215 DENSITY ALT 1100FT=

TAF CYCD 142338Z 1500/1504 07005KT P6SM FEW200 BECMG 1502/1504 VRB03KT RMK NXT FCST WILL BE ISSUED AT 151445Z=

CYVR

METAR CYVR 150200Z 27002KT 20SM FEW240 21/12 A3014 RMK CI1 SLP207 DENSITY ALT 600FT=

METAR CYVR 150100Z 24003KT 210V290 20SM FEW040 FEW260 22/12 A3016 RMK CU1CI1 CU TR SLP213 DENSITY ALT 600FT=

METAR CYVR 150000Z 23005KT 180V270 25SM FEW044 FEW150 FEW210 21/13 A3017 RMK CU1AC1CI1 CU TR SLP217 DENSITY ALT 500FT=

TAF CYVR 142338Z 1500/1606 23007KT P6SM FEW050
FM150600 09006KT P6SM FEW200
FM151800 28008KT P6SM SKC RMK NXT FCST BY 150300Z=

CYXX

METAR CYXX 150200Z 21007KT 30SM FEW260 FEW280 23/11 A3014 RMK CI1CI1 CI TR CI TR SLP206 DENSITY ALT 1000FT=

METAR CYXX 150100Z 21008KT 30SM FEW260 SCT300 24/11 A3015 RMK CI1CI3 SLP211 DENSITY ALT 1100FT=

METAR CYXX 150000Z 24006KT 190V270 30SM FEW260 FEW310 25/11 A3016 RMK CI1CI1 CI TR CI TR SLP214 DENSITY ALT 1200FT=

TAF CYXX 142338Z 1500/1524 22007KT P6SM FEW200 BECMG 1504/1506 VRB03KT BECMG 1518/1520 24007KT RMK NXT FCST BY 150600Z=

Supplemental information

Lower mainland ATIS: 1-877-517-2847

CZBB (Boundary Bay) current winds

Upper winds (Vancouver)

Data fromValid at300060009000
14120014180031083116+103126+07
14120015000029173123+133128+08
14120015120032133012+142917+09

NOTAMs

On October 10, 2019, NAV CANADA changed to the ICAO NOTAM format. They are now available only through Collaborative Flight Planning Services (CFPS) (plan.navcanada.ca). I'm working to update this site to pull in the relevant NOTAMs in the new format.